createdAt,value
2023-02-14T00:00:21.781Z,102005.38
2023-02-14T00:03:10.712Z,101994.09
2023-02-14T00:05:39.790Z,102007.01
2023-02-14T00:08:08.777Z,102005.24
2023-02-14T00:10:37.916Z,102012.13
2023-02-14T00:13:06.761Z,101999.21
2023-02-14T00:15:38.239Z,101994.91
2023-02-14T00:18:07.236Z,101996.63
2023-02-14T00:20:36.465Z,101999.21
2023-02-14T00:23:08.401Z,102010.41
2023-02-14T00:25:37.321Z,102008.64
2023-02-14T00:28:06.559Z,102011.22
2023-02-14T00:30:36.176Z,102018.97
2023-02-14T00:33:07.949Z,102021.50
2023-02-14T00:35:39.314Z,102022.37
2023-02-14T00:38:10.569Z,102024.89
2023-02-14T00:40:43.455Z,102024.00
2023-02-14T00:43:14.902Z,102022.27
2023-02-14T00:45:44.850Z,102037.75
2023-02-14T00:48:16.396Z,102029.06
2023-02-14T00:50:48.303Z,102025.66
2023-02-14T00:53:18.262Z,102030.83
2023-02-14T00:55:48.262Z,102032.51
2023-02-14T00:58:17.474Z,102035.09
2023-02-14T01:00:48.755Z,102026.48
2023-02-14T01:03:18.019Z,102021.31
2023-02-14T01:05:49.990Z,102021.31
2023-02-14T01:08:20.052Z,102024.71
2023-02-14T01:10:49.294Z,102024.71
2023-02-14T01:13:19.609Z,102023.81
2023-02-14T01:15:51.810Z,102020.31
2023-02-14T01:18:20.750Z,102024.52
2023-02-14T01:20:53.845Z,102022.80
2023-02-14T01:23:23.143Z,102021.86
2023-02-14T01:25:52.154Z,102022.67
2023-02-14T01:28:22.649Z,102017.45
2023-02-14T01:30:51.852Z,102019.17
2023-02-14T01:33:28.148Z,102023.43
2023-02-14T01:35:57.925Z,102031.13
2023-02-14T01:38:27.478Z,102031.94
2023-02-14T01:40:58.296Z,102032.75
2023-02-14T01:43:27.837Z,102035.28
2023-02-14T01:45:56.858Z,102036.01
2023-02-14T01:48:26.090Z,102038.48
2023-02-14T01:50:56.240Z,102041.06
2023-02-14T01:53:28.510Z,102032.38
2023-02-14T01:56:06.706Z,102027.06
2023-02-14T01:58:46.094Z,102029.59
2023-02-14T02:01:16.880Z,102033.86
2023-02-14T02:03:50.855Z,102032.09
2023-02-14T02:06:22.325Z,102035.52
2023-02-14T02:09:02.423Z,102041.41
2023-02-14T02:11:32.716Z,102030.13
2023-02-14T02:14:01.698Z,102030.07
2023-02-14T02:17:16.595Z,102030.02
2023-02-14T02:20:20.492Z,102025.67
2023-02-14T02:23:24.384Z,102027.44
2023-02-14T02:26:15.893Z,102031.70
2023-02-14T02:29:22.176Z,102032.52
2023-02-14T02:32:17.503Z,102036.75
2023-02-14T02:35:24.798Z,102041.02
2023-02-14T02:38:17.007Z,102053.86
2023-02-14T02:40:56.060Z,102053.71
2023-02-14T02:43:42.845Z,102053.66
2023-02-14T02:46:43.156Z,102065.66
2023-02-14T02:49:48.442Z,102062.12
2023-02-14T02:52:41.403Z,102058.62
2023-02-14T02:55:16.871Z,102074.09
2023-02-14T02:57:51.705Z,102066.21
2023-02-14T03:00:24.221Z,102073.86
2023-02-14T03:03:15.230Z,102070.41
2023-02-14T03:05:46.313Z,102068.70
2023-02-14T03:08:20.874Z,102073.80
2023-02-14T03:10:49.819Z,102075.52
2023-02-14T03:13:40.476Z,102069.40
2023-02-14T03:16:30.508Z,102070.27
2023-02-14T03:19:46.349Z,102079.62
2023-02-14T03:22:22.106Z,102076.98
2023-02-14T03:25:03.215Z,102076.98
2023-02-14T03:27:38.972Z,102071.78
2023-02-14T03:30:17.869Z,102075.17
2023-02-14T03:32:53.260Z,102075.92
2023-02-14T03:35:30.711Z,102074.16
2023-02-14T03:38:07.816Z,102073.19
2023-02-14T03:40:40.827Z,102084.37
2023-02-14T03:43:14.225Z,102086.84
2023-02-14T03:45:50.982Z,102087.65
2023-02-14T03:48:24.821Z,102088.46
2023-02-14T03:50:55.600Z,102081.69
2023-02-14T03:53:28.332Z,102083.30
2023-02-14T03:56:03.570Z,102080.63
2023-02-14T03:58:36.155Z,102078.86
2023-02-14T04:01:10.875Z,102075.42
2023-02-14T04:03:42.480Z,102087.45
2023-02-14T04:06:11.588Z,102083.91
2023-02-14T04:08:40.453Z,102075.21
2023-02-14T04:11:09.311Z,102070.86
2023-02-14T04:13:39.583Z,102060.55
2023-02-14T04:16:08.808Z,102071.67
2023-02-14T04:18:56.361Z,102071.62
2023-02-14T04:21:25.227Z,102070.71
2023-02-14T04:23:54.151Z,102060.34
2023-02-14T04:26:23.084Z,102058.58
2023-02-14T04:28:58.307Z,102066.31
2023-02-14T04:31:27.442Z,102072.27
2023-02-14T04:33:56.948Z,102064.54
2023-02-14T04:36:25.820Z,102074.85
2023-02-14T04:38:54.663Z,102079.05
2023-02-14T04:41:23.469Z,102080.81
2023-02-14T04:43:54.959Z,102087.69
2023-02-14T04:46:28.787Z,102085.97
2023-02-14T04:49:00.367Z,102093.65
2023-02-14T04:51:29.168Z,102096.23
2023-02-14T04:53:58.446Z,102095.27
2023-02-14T04:56:28.829Z,102091.82
2023-02-14T04:58:58.062Z,102093.50
2023-02-14T05:01:27.954Z,102103.75
2023-02-14T05:03:58.352Z,102113.91
2023-02-14T05:06:28.391Z,102103.59
2023-02-14T05:08:57.709Z,102110.46
2023-02-14T05:11:28.086Z,102112.14
2023-02-14T05:13:57.080Z,102110.46
2023-02-14T05:16:38.043Z,102119.00
2023-02-14T05:19:07.052Z,102119.00
2023-02-14T05:21:35.859Z,102118.09
2023-02-14T05:24:04.983Z,102119.87
2023-02-14T05:26:33.815Z,102125.02
2023-02-14T05:29:02.716Z,102123.25
2023-02-14T05:31:32.798Z,102131.80
2023-02-14T05:34:01.670Z,102128.34
2023-02-14T05:36:30.542Z,102130.92
2023-02-14T05:39:02.090Z,102139.47
2023-02-14T05:41:31.876Z,102140.33
2023-02-14T05:44:00.846Z,102132.54
2023-02-14T05:46:37.897Z,102134.25
2023-02-14T05:49:08.158Z,102141.89
2023-02-14T05:51:37.286Z,102134.16
2023-02-14T05:54:06.258Z,102135.05
2023-02-14T05:56:35.320Z,102135.87
2023-02-14T05:59:06.741Z,102145.37
2023-02-14T06:01:35.743Z,102144.47
2023-02-14T06:04:04.769Z,102137.54
2023-02-14T06:06:36.232Z,102146.98
2023-02-14T06:09:05.964Z,102152.14
2023-02-14T06:11:34.755Z,102153.00
2023-02-14T06:14:04.587Z,102152.14
2023-02-14T06:16:34.661Z,102153.81
2023-02-14T06:19:03.555Z,102151.23
2023-02-14T06:21:32.620Z,102145.21
2023-02-14T06:24:01.552Z,102155.52
2023-02-14T06:26:32.331Z,102156.39
2023-02-14T06:29:01.781Z,102165.02
2023-02-14T06:31:33.074Z,102157.20
2023-02-14T06:34:02.192Z,102153.69
2023-02-14T06:36:31.160Z,102163.91
2023-02-14T06:39:00.032Z,102166.35
2023-02-14T06:41:29.167Z,102167.97
2023-02-14T06:43:58.697Z,102162.00
2023-02-14T06:46:33.308Z,102174.09
2023-02-14T06:49:02.397Z,102171.63
2023-02-14T06:51:31.197Z,102162.29
2023-02-14T06:54:00.167Z,102172.59
2023-02-14T06:56:29.263Z,102168.34
2023-02-14T06:58:59.174Z,102166.70
2023-02-14T07:01:28.772Z,102170.98
2023-02-14T07:04:00.150Z,102173.72
2023-02-14T07:06:29.282Z,102183.22
2023-02-14T07:08:58.383Z,102169.49
2023-02-14T07:11:28.145Z,102172.16
2023-02-14T07:13:57.032Z,102168.84
2023-02-14T07:16:29.286Z,102166.42
2023-02-14T07:18:59.374Z,102167.60
2023-02-14T07:21:28.632Z,102172.81
2023-02-14T07:23:57.681Z,102180.70
2023-02-14T07:26:26.747Z,102184.16
2023-02-14T07:28:55.753Z,102184.25
2023-02-14T07:31:25.735Z,102188.66
2023-02-14T07:33:55.285Z,102191.30
2023-02-14T07:36:24.429Z,102188.72
2023-02-14T07:38:53.254Z,102181.08
2023-02-14T07:41:23.541Z,102184.59
2023-02-14T07:43:52.738Z,102188.34
2023-02-14T07:46:24.565Z,102182.53
2023-02-14T07:48:53.872Z,102190.48
2023-02-14T07:51:25.808Z,102192.31
2023-02-14T07:53:54.711Z,102192.46
2023-02-14T07:56:25.043Z,102201.16
2023-02-14T07:58:54.130Z,102202.84
2023-02-14T08:01:23.604Z,102206.32
2023-02-14T08:03:55.089Z,102211.54
2023-02-14T08:06:25.704Z,102210.73
2023-02-14T08:08:54.640Z,102221.14
2023-02-14T08:11:42.104Z,102224.59
2023-02-14T08:14:11.432Z,102231.37
2023-02-14T08:16:40.286Z,102230.50
2023-02-14T08:19:09.428Z,102232.92
2023-02-14T08:21:38.407Z,102233.73
2023-02-14T08:24:08.028Z,102232.98
2023-02-14T08:26:37.492Z,102231.97
2023-02-14T08:29:06.670Z,102238.89
2023-02-14T08:31:37.032Z,102234.55
2023-02-14T08:34:07.312Z,102249.15
2023-02-14T08:36:36.661Z,102248.47
2023-02-14T08:39:07.766Z,102244.36
2023-02-14T08:41:37.454Z,102242.00
2023-02-14T08:44:06.996Z,102243.08
2023-02-14T08:46:38.017Z,102241.67
2023-02-14T08:49:06.975Z,102242.63
2023-02-14T08:51:36.125Z,102241.67
2023-02-14T08:54:05.664Z,102233.77
2023-02-14T08:56:34.910Z,102240.80
2023-02-14T08:59:03.977Z,102244.31
2023-02-14T09:01:36.695Z,102237.53
2023-02-14T09:04:06.035Z,102242.03
2023-02-14T09:06:38.962Z,102243.05
2023-02-14T09:09:08.600Z,102244.16
2023-02-14T09:11:37.803Z,102241.69
2023-02-14T09:14:06.900Z,102238.30
2023-02-14T09:16:35.999Z,102240.07
2023-02-14T09:19:05.400Z,102247.81
2023-02-14T09:21:34.398Z,102243.55
2023-02-14T09:24:03.598Z,102241.99
2023-02-14T09:26:32.569Z,102244.78
2023-02-14T09:29:01.483Z,102248.32
2023-02-14T09:31:32.341Z,102251.71
2023-02-14T09:34:03.448Z,102258.55
2023-02-14T09:36:51.004Z,102256.87
2023-02-14T09:39:19.957Z,102245.59
2023-02-14T09:42:10.078Z,102252.52
2023-02-14T09:44:43.337Z,102251.11
2023-02-14T09:47:28.136Z,102254.64
2023-02-14T09:49:58.270Z,102256.63
2023-02-14T09:52:30.294Z,102259.41
2023-02-14T09:55:02.381Z,102255.11
2023-02-14T09:57:47.452Z,102247.42
2023-02-14T10:00:23.176Z,102252.82
2023-02-14T10:03:03.279Z,102256.41
2023-02-14T10:05:39.014Z,102257.28
2023-02-14T10:08:21.810Z,102257.42
2023-02-14T10:11:02.268Z,102267.00
2023-02-14T10:13:39.044Z,102266.14
2023-02-14T10:16:16.822Z,102263.34
2023-02-14T10:18:52.423Z,102263.77
2023-02-14T10:21:25.431Z,102257.75
2023-02-14T10:24:00.442Z,102257.08
2023-02-14T10:26:35.644Z,102257.37
2023-02-14T10:29:11.076Z,102255.80
2023-02-14T10:31:49.695Z,102260.36
2023-02-14T10:34:26.895Z,102255.58
2023-02-14T10:37:13.918Z,102255.22
2023-02-14T10:39:55.968Z,102258.89
2023-02-14T10:42:36.564Z,102257.31
2023-02-14T10:45:20.682Z,102261.81
2023-02-14T10:47:57.864Z,102253.34
2023-02-14T10:50:35.157Z,102255.06
2023-02-14T10:53:18.346Z,102250.95
2023-02-14T10:55:54.808Z,102248.45
2023-02-14T10:58:27.631Z,102249.27
2023-02-14T11:01:02.818Z,102246.73
2023-02-14T11:03:34.929Z,102243.20
2023-02-14T11:06:04.098Z,102243.20
2023-02-14T11:08:35.953Z,102245.92
2023-02-14T11:11:14.486Z,102238.22
2023-02-14T11:13:46.223Z,102240.80
2023-02-14T11:16:28.975Z,102234.00
2023-02-14T11:19:18.681Z,102245.34
2023-02-14T11:21:50.045Z,102240.26
2023-02-14T11:24:25.822Z,102238.73
2023-02-14T11:26:57.990Z,102236.27
2023-02-14T11:29:30.646Z,102237.27
2023-02-14T11:32:08.668Z,102243.34
2023-02-14T11:34:40.160Z,102237.36
2023-02-14T11:37:29.382Z,102227.06
2023-02-14T11:40:00.799Z,102227.94
2023-02-14T11:42:45.544Z,102222.84
2023-02-14T11:45:30.598Z,102221.20
2023-02-14T11:48:19.684Z,102209.19
2023-02-14T11:50:58.187Z,102206.61
2023-02-14T11:53:29.167Z,102210.91
2023-02-14T11:56:00.242Z,102210.91
2023-02-14T11:58:36.002Z,102207.19
2023-02-14T12:01:05.538Z,102213.13
2023-02-14T12:03:43.369Z,102209.01
2023-02-14T12:06:23.008Z,102210.09
2023-02-14T12:08:52.419Z,102210.27
2023-02-14T12:11:22.740Z,102206.92
2023-02-14T12:13:56.438Z,102202.64
2023-02-14T12:16:33.191Z,102201.69
2023-02-14T12:19:06.883Z,102199.16
2023-02-14T12:21:46.879Z,102197.47
2023-02-14T12:24:27.743Z,102201.83
2023-02-14T12:27:06.509Z,102199.33
2023-02-14T12:29:41.631Z,102203.99
2023-02-14T12:32:19.756Z,102198.87
2023-02-14T12:34:53.831Z,102205.77
2023-02-14T12:37:31.712Z,102206.58
2023-02-14T12:40:17.411Z,102207.05
2023-02-14T12:43:09.913Z,102198.11
2023-02-14T12:45:59.701Z,102196.26
2023-02-14T12:48:39.108Z,102195.57
2023-02-14T12:51:16.742Z,102195.63
2023-02-14T12:54:10.562Z,102187.86
2023-02-14T12:56:51.152Z,102187.05
2023-02-14T12:59:33.205Z,102187.13
2023-02-14T13:02:35.913Z,102182.98
2023-02-14T13:05:16.104Z,102189.37
2023-02-14T13:08:12.200Z,102180.11
2023-02-14T13:10:59.069Z,102180.36
2023-02-14T13:13:41.765Z,102184.72
2023-02-14T13:16:22.625Z,102183.81
2023-02-14T13:18:59.574Z,102180.31
2023-02-14T13:21:31.663Z,102184.84
2023-02-14T13:24:13.667Z,102191.88
2023-02-14T13:26:48.130Z,102186.66
2023-02-14T13:29:20.812Z,102191.83
2023-02-14T13:31:51.730Z,102193.47
2023-02-14T13:34:27.260Z,102199.42
2023-02-14T13:36:59.375Z,102192.40
2023-02-14T13:39:37.946Z,102188.95
2023-02-14T13:42:08.437Z,102192.36
2023-02-14T13:44:49.264Z,102184.72
2023-02-14T13:47:20.265Z,102195.19
2023-02-14T13:49:54.325Z,102190.93
2023-02-14T13:52:42.494Z,102192.61
2023-02-14T13:55:18.900Z,102193.34
2023-02-14T13:58:00.241Z,102188.25
2023-02-14T14:00:42.089Z,102185.66
2023-02-14T14:03:37.252Z,102176.05
2023-02-14T14:06:08.291Z,102183.64
2023-02-14T14:08:47.517Z,102180.19
2023-02-14T14:11:59.154Z,102180.06
2023-02-14T14:14:35.870Z,102179.89
2023-02-14T14:17:27.283Z,102188.34
2023-02-14T14:19:57.361Z,102185.58
2023-02-14T14:22:30.137Z,102175.19
2023-02-14T14:25:01.691Z,102185.53
2023-02-14T14:27:34.394Z,102177.64
2023-02-14T14:30:06.073Z,102186.30
2023-02-14T14:32:37.257Z,102191.39
2023-02-14T14:35:16.681Z,102189.63
2023-02-14T14:37:49.808Z,102192.94
2023-02-14T14:40:25.707Z,102190.22
2023-02-14T14:42:57.842Z,102188.45
2023-02-14T14:45:28.852Z,102196.98
2023-02-14T14:48:01.575Z,102194.31
2023-02-14T14:51:13.473Z,102194.27
2023-02-14T14:54:23.041Z,102194.22
2023-02-14T14:58:02.606Z,102195.08
2023-02-14T15:01:03.451Z,102191.62
2023-02-14T15:03:50.005Z,102189.04
2023-02-14T15:10:46.487Z,102187.14
2023-02-14T15:14:08.845Z,102182.66
2023-02-14T15:17:05.681Z,102182.55
2023-02-14T15:20:04.705Z,102193.63
2023-02-14T15:23:05.934Z,102191.00
2023-02-14T15:25:56.769Z,102200.39
2023-02-14T15:28:52.684Z,102200.39
2023-02-14T15:31:46.830Z,102202.02
2023-02-14T15:34:16.871Z,102200.28
2023-02-14T15:36:58.791Z,102191.62
2023-02-14T15:39:33.607Z,102195.03
2023-02-14T15:42:04.304Z,102199.25
2023-02-14T15:44:36.067Z,102197.43
2023-02-14T15:47:07.019Z,102192.21
2023-02-14T15:49:43.397Z,102198.14
2023-02-14T15:52:16.314Z,102205.00
2023-02-14T15:54:56.618Z,102206.58
2023-02-14T15:57:31.829Z,102203.04
2023-02-14T16:00:06.963Z,102207.34
2023-02-14T16:02:47.442Z,102209.73
2023-02-14T16:05:22.833Z,102209.65
2023-02-14T16:08:02.944Z,102210.36
2023-02-14T16:10:34.342Z,102223.20
2023-02-14T16:13:09.006Z,102212.80
2023-02-14T16:15:56.269Z,102219.61
2023-02-14T16:18:37.497Z,102223.77
2023-02-14T16:21:18.842Z,102225.39
2023-02-14T16:24:12.316Z,102226.16
2023-02-14T16:26:43.500Z,102229.46
2023-02-14T16:29:15.622Z,102226.83
2023-02-14T16:32:14.220Z,102232.75
2023-02-14T16:34:40.321Z,102228.34
2023-02-14T16:37:19.904Z,102231.73
2023-02-14T16:39:57.121Z,102236.81
2023-02-14T16:42:31.260Z,102234.23
2023-02-14T16:44:59.939Z,102242.74
2023-02-14T16:47:29.615Z,102242.69
2023-02-14T16:49:58.909Z,102240.02
2023-02-14T16:52:29.650Z,102240.77
2023-02-14T16:54:58.984Z,102244.11
2023-02-14T16:57:32.157Z,102241.44
2023-02-14T17:00:01.358Z,102232.77
2023-02-14T17:02:30.788Z,102238.66
2023-02-14T17:05:00.494Z,102242.95
2023-02-14T17:07:32.575Z,102243.77
2023-02-14T17:10:08.280Z,102241.13
2023-02-14T17:12:42.929Z,102246.30
2023-02-14T17:15:17.678Z,102245.39
2023-02-14T17:17:52.210Z,102249.69
2023-02-14T17:20:21.510Z,102252.18
2023-02-14T17:22:50.878Z,102260.73
2023-02-14T17:25:20.366Z,102252.12
2023-02-14T17:27:50.840Z,102256.38
2023-02-14T17:30:22.730Z,102258.04
2023-02-14T17:32:54.319Z,102256.33
2023-02-14T17:35:23.487Z,102258.91
2023-02-14T17:37:55.500Z,102263.20
2023-02-14T17:40:42.025Z,102259.72
2023-02-14T17:43:12.228Z,102257.14
2023-02-14T17:45:41.244Z,102257.08
2023-02-14T17:48:11.806Z,102263.12
2023-02-14T17:50:41.344Z,102263.05
2023-02-14T17:53:15.560Z,102256.13
2023-02-14T17:55:48.049Z,102255.31
2023-02-14T17:58:17.129Z,102263.05
2023-02-14T18:00:50.424Z,102261.23
2023-02-14T18:03:19.869Z,102255.91
2023-02-14T18:05:54.084Z,102255.11
2023-02-14T18:08:23.451Z,102254.14
2023-02-14T18:10:52.649Z,102259.25
2023-02-14T18:13:22.852Z,102250.55
2023-02-14T18:15:53.139Z,102259.05
2023-02-14T18:18:22.711Z,102267.59
2023-02-14T18:20:56.326Z,102258.09
2023-02-14T18:23:25.717Z,102261.38
2023-02-14T18:25:56.955Z,102262.23
2023-02-14T18:28:31.888Z,102264.72
2023-02-14T18:31:05.603Z,102271.50
2023-02-14T18:33:36.532Z,102263.70
2023-02-14T18:36:07.891Z,102260.16
2023-02-14T18:38:37.415Z,102259.19
2023-02-14T18:41:08.276Z,102264.35
2023-02-14T18:43:38.004Z,102264.35
2023-02-14T18:46:08.739Z,102266.01
2023-02-14T18:48:38.039Z,102265.10
2023-02-14T18:51:09.353Z,102264.23
2023-02-14T18:53:39.082Z,102259.08
2023-02-14T18:56:11.600Z,102267.69
2023-02-14T18:58:42.263Z,102262.52
2023-02-14T19:01:17.208Z,102258.17
2023-02-14T19:03:55.172Z,102271.17
2023-02-14T19:06:28.895Z,102260.84
2023-02-14T19:09:19.206Z,102266.88
2023-02-14T19:12:00.535Z,102265.10
2023-02-14T19:14:35.113Z,102266.72
2023-02-14T19:17:07.201Z,102265.85
2023-02-14T19:19:37.369Z,102263.22
2023-02-14T19:22:09.677Z,102263.13
2023-02-14T19:24:42.903Z,102266.60
2023-02-14T19:27:21.246Z,102273.53
2023-02-14T19:29:54.193Z,102272.58
2023-02-14T19:32:34.005Z,102268.22
2023-02-14T19:35:12.923Z,102276.83
2023-02-14T19:38:03.059Z,102272.48
2023-02-14T19:40:32.132Z,102265.55
2023-02-14T19:43:07.588Z,102268.13
2023-02-14T19:45:48.559Z,102275.00
2023-02-14T19:48:17.522Z,102273.23
2023-02-14T19:50:48.459Z,102266.30
2023-02-14T19:53:21.531Z,102268.81
2023-02-14T19:55:53.204Z,102264.41
2023-02-14T19:58:25.526Z,102269.47
2023-02-14T20:00:58.772Z,102271.19
2023-02-14T20:03:28.788Z,102266.73
2023-02-14T20:05:57.703Z,102262.33
2023-02-14T20:08:26.697Z,102263.07
2023-02-14T20:10:55.911Z,102263.72
2023-02-14T20:13:24.931Z,102257.48
2023-02-14T20:15:53.922Z,102262.42
2023-02-14T20:18:23.075Z,102266.39
2023-02-14T20:21:04.632Z,102266.08
2023-02-14T20:23:33.948Z,102259.67
2023-02-14T20:26:03.045Z,102265.41
2023-02-14T20:28:32.583Z,102258.26
2023-02-14T20:31:07.626Z,102261.41
2023-02-14T20:33:37.492Z,102263.70
2023-02-14T20:36:08.115Z,102260.96
2023-02-14T20:38:37.110Z,102264.11
2023-02-14T20:41:06.664Z,102260.41
2023-02-14T20:43:36.595Z,102261.08
2023-02-14T20:46:08.634Z,102269.38
2023-02-14T20:48:37.912Z,102262.29
2023-02-14T20:51:24.902Z,102261.42
2023-02-14T20:53:54.322Z,102259.65
2023-02-14T20:56:26.497Z,102260.62
2023-02-14T20:58:59.683Z,102266.64
2023-02-14T21:01:29.982Z,102262.45
2023-02-14T21:04:01.785Z,102261.66
2023-02-14T21:06:33.635Z,102266.94
2023-02-14T21:09:05.447Z,102262.75
2023-02-14T21:11:34.496Z,102260.98
2023-02-14T21:14:04.409Z,102264.46
2023-02-14T21:16:34.426Z,102264.46
2023-02-14T21:19:04.322Z,102264.46
2023-02-14T21:21:36.331Z,102266.23
2023-02-14T21:24:10.228Z,102268.00
2023-02-14T21:26:40.934Z,102259.44
2023-02-14T21:29:10.743Z,102266.36
2023-02-14T21:31:40.019Z,102264.76
2023-02-14T21:34:09.046Z,102258.80
2023-02-14T21:36:38.068Z,102267.50
2023-02-14T21:39:08.293Z,102264.98
2023-02-14T21:41:37.590Z,102265.08
2023-02-14T21:44:07.188Z,102271.17
2023-02-14T21:46:40.412Z,102266.98
2023-02-14T21:49:30.220Z,102271.34
2023-02-14T21:52:01.403Z,102259.42
2023-02-14T21:54:30.440Z,102264.73
2023-02-14T21:56:59.451Z,102264.80
2023-02-14T21:59:28.654Z,102264.05
2023-02-14T22:01:58.392Z,102257.29
2023-02-14T22:04:29.952Z,102265.98
2023-02-14T22:07:01.648Z,102263.58
2023-02-14T22:09:31.730Z,102265.41
2023-02-14T22:12:00.826Z,102262.03
2023-02-14T22:14:29.953Z,102256.93
2023-02-14T22:16:59.175Z,102256.13
2023-02-14T22:19:30.250Z,102257.96
2023-02-14T22:21:59.884Z,102255.48
2023-02-14T22:24:28.917Z,102262.47
2023-02-14T22:26:57.941Z,102255.70
2023-02-14T22:29:27.154Z,102258.34
2023-02-14T22:31:58.935Z,102251.51
2023-02-14T22:34:28.012Z,102257.63
2023-02-14T22:37:00.607Z,102256.79
2023-02-14T22:39:30.391Z,102252.53
2023-02-14T22:42:01.991Z,102248.34
2023-02-14T22:44:33.297Z,102251.79
2023-02-14T22:47:02.556Z,102252.70
2023-02-14T22:49:32.052Z,102250.11
2023-02-14T22:52:01.518Z,102250.17
2023-02-14T22:54:30.611Z,102257.11
2023-02-14T22:56:59.741Z,102253.63
2023-02-14T22:59:31.456Z,102251.05
2023-02-14T23:02:01.230Z,102250.17
2023-02-14T23:04:30.577Z,102251.95
2023-02-14T23:07:01.443Z,102248.56
2023-02-14T23:09:30.810Z,102244.27
2023-02-14T23:12:00.016Z,102245.98
2023-02-14T23:14:47.748Z,102254.59
2023-02-14T23:17:35.831Z,102247.75
2023-02-14T23:20:24.464Z,102245.08
2023-02-14T23:22:54.696Z,102242.50
2023-02-14T23:25:24.006Z,102247.66
2023-02-14T23:27:57.604Z,102242.44
2023-02-14T23:30:27.201Z,102258.88
2023-02-14T23:32:58.946Z,102251.20
2023-02-14T23:35:28.222Z,102251.20
2023-02-14T23:37:57.564Z,102246.95
2023-02-14T23:40:27.187Z,102248.72
2023-02-14T23:42:56.649Z,102252.16
2023-02-14T23:45:34.727Z,102250.45
2023-02-14T23:48:08.757Z,102253.03
2023-02-14T23:50:37.966Z,102247.00
2023-02-14T23:53:08.424Z,102247.00
2023-02-14T23:55:37.729Z,102246.14
2023-02-14T23:58:07.921Z,102241.84
